createdAt,value
2022-08-17T00:00:42.900Z,15.20
2022-08-17T00:03:15.499Z,15.90
2022-08-17T00:05:58.377Z,13.30
2022-08-17T00:08:33.023Z,13.80
2022-08-17T00:11:06.679Z,13.40
2022-08-17T00:13:40.478Z,13.90
2022-08-17T00:16:13.608Z,12.70
2022-08-17T00:19:00.997Z,11.90
2022-08-17T00:22:29.462Z,10.50
2022-08-17T00:24:25.110Z,9.70
2022-08-17T00:26:53.671Z,9.50
2022-08-17T00:29:22.619Z,9.10
2022-08-17T00:31:52.085Z,8.40
2022-08-17T00:34:21.954Z,8.80
2022-08-17T00:36:50.432Z,8.20
2022-08-17T00:39:19.861Z,7.90
2022-08-17T00:41:48.201Z,7.30
2022-08-17T00:44:16.598Z,8.20
2022-08-17T00:46:45.056Z,7.50
2022-08-17T00:49:16.491Z,8.10
2022-08-17T00:51:50.639Z,7.70
2022-08-17T00:54:41.863Z,8.40
2022-08-17T00:57:29.256Z,8.00
2022-08-17T01:00:05.998Z,7.60
2022-08-17T01:02:50.887Z,8.00
2022-08-17T01:05:25.405Z,8.50
2022-08-17T01:07:54.504Z,8.50
2022-08-17T01:10:59.689Z,8.60
2022-08-17T01:13:21.669Z,8.00
2022-08-17T01:15:57.607Z,8.80
2022-08-17T01:18:27.759Z,8.50
2022-08-17T01:21:00.693Z,8.20
2022-08-17T01:23:30.754Z,8.80
2022-08-17T01:26:02.523Z,8.60
2022-08-17T01:28:53.155Z,8.60
2022-08-17T01:31:28.101Z,8.40
2022-08-17T01:34:00.622Z,8.60
2022-08-17T01:36:30.993Z,9.40
2022-08-17T01:39:00.383Z,9.40
2022-08-17T01:41:28.683Z,9.50
2022-08-17T01:44:06.564Z,9.10
2022-08-17T01:46:37.186Z,9.00
2022-08-17T01:49:12.329Z,9.50
2022-08-17T01:51:41.801Z,9.50
2022-08-17T01:54:13.897Z,9.00
2022-08-17T01:56:47.244Z,8.70
2022-08-17T01:59:18.385Z,8.30
2022-08-17T02:01:48.478Z,8.90
2022-08-17T02:04:17.124Z,7.60
2022-08-17T02:06:53.162Z,7.90
2022-08-17T02:09:25.590Z,7.40
2022-08-17T02:11:56.518Z,8.30
2022-08-17T02:14:25.914Z,7.80
2022-08-17T02:16:54.843Z,7.70
2022-08-17T02:19:23.245Z,8.60
2022-08-17T02:21:54.422Z,8.70
2022-08-17T02:24:59.992Z,8.40
2022-08-17T02:27:15.861Z,8.40
2022-08-17T02:29:44.351Z,8.30
2022-08-17T02:32:27.863Z,7.70
2022-08-17T02:34:58.515Z,7.50
2022-08-17T02:37:28.530Z,7.80
2022-08-17T02:39:58.684Z,8.00
2022-08-17T02:42:34.383Z,7.70
2022-08-17T02:45:06.537Z,7.80
2022-08-17T02:47:36.015Z,7.70
2022-08-17T02:50:06.956Z,8.20
2022-08-17T02:52:43.269Z,8.00
2022-08-17T02:55:21.786Z,7.50
2022-08-17T02:57:51.335Z,7.50
2022-08-17T03:00:27.073Z,7.60
2022-08-17T03:02:57.630Z,7.60
2022-08-17T03:05:29.250Z,7.40
2022-08-17T03:07:57.440Z,7.70
2022-08-17T03:10:26.828Z,7.70
2022-08-17T03:12:55.350Z,8.00
2022-08-17T03:15:27.181Z,7.00
2022-08-17T03:17:57.123Z,8.00
2022-08-17T03:20:29.230Z,7.60
2022-08-17T03:23:01.824Z,8.60
2022-08-17T03:25:39.669Z,7.60
2022-08-17T03:28:07.905Z,8.20
2022-08-17T03:30:37.299Z,8.50
2022-08-17T03:33:07.922Z,8.20
2022-08-17T03:35:38.019Z,8.70
2022-08-17T03:38:07.676Z,15.10
2022-08-17T03:40:58.204Z,9.50
2022-08-17T03:43:28.504Z,8.50
2022-08-17T03:46:27.624Z,8.40
2022-08-17T03:49:15.926Z,9.10
2022-08-17T03:52:02.706Z,9.90
2022-08-17T03:54:52.372Z,10.00
2022-08-17T03:57:22.303Z,10.80
2022-08-17T03:59:52.083Z,10.30
2022-08-17T04:02:27.445Z,11.00
2022-08-17T04:04:56.619Z,10.20
2022-08-17T04:07:27.862Z,9.80
2022-08-17T04:09:58.336Z,9.70
2022-08-17T04:12:31.239Z,9.60
2022-08-17T04:15:00.087Z,9.70
2022-08-17T04:17:29.522Z,10.60
2022-08-17T04:19:57.703Z,9.10
2022-08-17T04:22:32.869Z,9.30
2022-08-17T04:25:04.697Z,9.10
2022-08-17T04:27:32.955Z,9.20
2022-08-17T04:30:02.242Z,9.10
2022-08-17T04:33:04.973Z,8.70
2022-08-17T04:35:26.958Z,8.30
2022-08-17T04:37:55.237Z,8.80
2022-08-17T04:40:44.332Z,8.80
2022-08-17T04:43:14.487Z,10.80
2022-08-17T04:45:59.116Z,9.10
2022-08-17T04:48:37.632Z,8.40
2022-08-17T04:51:23.937Z,8.10
2022-08-17T04:53:56.920Z,7.50
2022-08-17T04:56:27.562Z,7.90
2022-08-17T04:59:00.438Z,7.60
2022-08-17T05:01:31.550Z,7.70
2022-08-17T05:04:33.663Z,7.80
2022-08-17T05:06:55.331Z,7.60
2022-08-17T05:09:23.634Z,7.90
2022-08-17T05:11:52.894Z,7.10
2022-08-17T05:14:32.989Z,7.70
2022-08-17T05:17:07.043Z,7.10
2022-08-17T05:19:39.385Z,7.20
2022-08-17T05:22:08.314Z,7.00
2022-08-17T05:24:42.698Z,7.30
2022-08-17T05:27:14.346Z,7.20
2022-08-17T05:29:47.741Z,7.40
2022-08-17T05:32:38.770Z,7.10
2022-08-17T05:35:05.570Z,6.50
2022-08-17T05:37:33.887Z,7.10
2022-08-17T05:40:02.046Z,8.20
2022-08-17T05:42:30.394Z,7.60
2022-08-17T05:44:59.273Z,6.30
2022-08-17T05:47:28.555Z,6.50
2022-08-17T05:49:58.965Z,6.70
2022-08-17T05:52:47.054Z,6.00
2022-08-17T05:55:40.018Z,6.40
2022-08-17T05:58:28.916Z,6.80
2022-08-17T06:00:57.087Z,6.50
2022-08-17T06:04:11.082Z,5.80
2022-08-17T06:06:56.777Z,6.60
2022-08-17T06:09:33.652Z,6.50
2022-08-17T06:12:24.287Z,6.90
2022-08-17T06:15:30.194Z,7.50
2022-08-17T06:18:05.936Z,15.60
2022-08-17T06:20:49.721Z,18.80
2022-08-17T06:23:32.854Z,20.20
2022-08-17T06:26:09.077Z,12.40
2022-08-17T06:29:00.858Z,7.80
2022-08-17T06:31:34.345Z,6.20
2022-08-17T06:34:06.999Z,5.50
2022-08-17T06:37:06.130Z,4.80
2022-08-17T06:39:59.498Z,4.60
2022-08-17T06:42:55.042Z,4.90
2022-08-17T06:45:42.203Z,4.60
2022-08-17T06:48:25.150Z,4.20
2022-08-17T06:51:04.224Z,4.20
2022-08-17T06:53:45.742Z,4.30
2022-08-17T06:56:53.248Z,4.20
2022-08-17T06:59:54.676Z,3.70
2022-08-17T07:02:52.250Z,4.50
2022-08-17T07:05:24.569Z,4.10
2022-08-17T07:08:12.092Z,4.60
2022-08-17T07:10:53.098Z,4.20
2022-08-17T07:13:55.588Z,4.50
2022-08-17T07:19:00.359Z,4.60
2022-08-17T07:21:38.723Z,4.40
2022-08-17T07:24:29.883Z,4.00
2022-08-17T07:27:27.761Z,4.30
2022-08-17T07:30:06.857Z,4.00
2022-08-17T07:32:57.898Z,4.30
2022-08-17T07:35:31.296Z,4.20
2022-08-17T07:38:24.732Z,4.60
2022-08-17T07:40:58.205Z,4.30
2022-08-17T07:43:31.666Z,4.30
2022-08-17T07:46:24.931Z,3.60
2022-08-17T07:48:56.766Z,4.10
2022-08-17T07:51:27.748Z,3.60
2022-08-17T07:54:13.682Z,3.80
2022-08-17T07:56:50.954Z,3.80
2022-08-17T07:59:33.413Z,3.90
2022-08-17T08:02:31.117Z,4.30
2022-08-17T08:05:10.110Z,4.00
2022-08-17T08:07:55.431Z,4.10
2022-08-17T08:10:39.149Z,4.20
2022-08-17T08:13:20.817Z,3.90
2022-08-17T08:15:54.656Z,3.50
2022-08-17T08:18:53.387Z,3.80
2022-08-17T08:21:41.865Z,3.40
2022-08-17T08:24:15.980Z,3.80
2022-08-17T08:26:59.398Z,3.60
2022-08-17T08:30:04.985Z,3.40
2022-08-17T08:33:13.364Z,3.40
2022-08-17T08:36:04.369Z,3.60
2022-08-17T08:38:54.047Z,3.40
2022-08-17T08:41:22.328Z,3.70
2022-08-17T08:44:10.094Z,3.80
2022-08-17T08:46:53.131Z,3.80
2022-08-17T08:49:58.962Z,4.30
2022-08-17T08:52:43.646Z,4.00
2022-08-17T08:55:24.186Z,3.70
2022-08-17T08:58:08.897Z,3.90
2022-08-17T09:01:00.342Z,5.00
2022-08-17T09:04:10.914Z,4.30
2022-08-17T09:06:58.157Z,4.20
2022-08-17T09:09:47.424Z,3.90
2022-08-17T09:12:33.880Z,4.50
2022-08-17T09:15:13.121Z,4.60
2022-08-17T09:18:59.843Z,4.60
2022-08-17T09:21:02.628Z,4.40
2022-08-17T09:23:42.404Z,4.00
2022-08-17T09:26:22.188Z,4.70
2022-08-17T09:28:56.233Z,4.20
2022-08-17T09:31:49.268Z,5.20
2022-08-17T09:34:31.899Z,5.20
2022-08-17T09:37:11.520Z,5.90
2022-08-17T09:39:50.382Z,5.90
2022-08-17T09:42:41.304Z,5.40
2022-08-17T09:45:25.244Z,5.50
2022-08-17T09:48:00.426Z,6.00
2022-08-17T09:51:04.245Z,5.20
2022-08-17T09:53:23.701Z,5.40
2022-08-17T09:56:10.376Z,5.80
2022-08-17T09:59:01.617Z,5.30
2022-08-17T10:01:47.698Z,5.40
2022-08-17T10:04:41.239Z,5.40
2022-08-17T10:07:46.682Z,6.00
2022-08-17T10:10:52.458Z,5.50
2022-08-17T10:14:02.009Z,6.40
2022-08-17T10:17:00.822Z,5.30
2022-08-17T10:19:38.831Z,5.50
2022-08-17T10:22:57.293Z,5.50
2022-08-17T10:25:59.779Z,5.00
2022-08-17T10:28:36.807Z,5.00
2022-08-17T10:34:20.860Z,5.10
2022-08-17T10:36:57.113Z,4.60
2022-08-17T10:39:50.409Z,4.50
2022-08-17T10:42:32.821Z,4.40
2022-08-17T10:45:16.276Z,4.40
2022-08-17T10:48:07.640Z,4.30
2022-08-17T10:50:47.067Z,4.10
2022-08-17T10:53:35.544Z,4.90
2022-08-17T10:56:13.448Z,4.80
2022-08-17T10:58:55.144Z,4.80
2022-08-17T11:01:29.784Z,5.10
2022-08-17T11:04:25.439Z,5.00
2022-08-17T11:07:21.741Z,4.30
2022-08-17T11:10:15.464Z,4.70
2022-08-17T11:12:54.597Z,3.90
2022-08-17T11:15:39.074Z,4.30
2022-08-17T11:18:29.411Z,4.80
2022-08-17T11:21:06.386Z,4.40
2022-08-17T11:23:46.759Z,4.70
2022-08-17T11:29:01.695Z,4.60
2022-08-17T11:31:40.042Z,4.30
2022-08-17T11:34:28.088Z,5.20
2022-08-17T11:37:31.760Z,5.00
2022-08-17T11:40:27.180Z,4.90
2022-08-17T11:42:58.099Z,4.60
2022-08-17T11:45:33.077Z,4.50
2022-08-17T11:48:29.164Z,4.60
2022-08-17T11:51:32.075Z,4.50
2022-08-17T11:54:30.736Z,4.50
2022-08-17T11:56:51.570Z,4.30
2022-08-17T11:59:36.076Z,4.60
2022-08-17T12:02:32.848Z,4.00
2022-08-17T12:05:23.091Z,4.30
2022-08-17T12:08:10.959Z,4.30
2022-08-17T12:10:52.259Z,4.30
2022-08-17T12:13:22.034Z,4.50
2022-08-17T12:15:53.394Z,4.40
2022-08-17T12:18:28.613Z,4.40
2022-08-17T12:21:40.574Z,4.10
2022-08-17T12:26:55.972Z,4.10
2022-08-17T12:29:35.556Z,3.70
2022-08-17T12:32:17.764Z,4.20
2022-08-17T12:34:49.417Z,4.60
2022-08-17T12:37:24.638Z,4.00
2022-08-17T12:40:08.854Z,4.50
2022-08-17T12:42:39.642Z,4.70
2022-08-17T12:45:24.763Z,4.20
2022-08-17T12:48:14.732Z,4.20
2022-08-17T12:50:46.391Z,4.50
2022-08-17T12:53:17.296Z,4.60
2022-08-17T12:55:46.505Z,3.80
2022-08-17T12:58:25.499Z,4.00
2022-08-17T13:01:09.062Z,4.70
2022-08-17T13:03:45.757Z,4.80
2022-08-17T13:06:26.624Z,4.60
2022-08-17T13:08:55.006Z,4.50
2022-08-17T13:11:25.583Z,4.10
2022-08-17T13:13:56.698Z,4.40
2022-08-17T13:16:33.550Z,4.70
2022-08-17T13:19:39.694Z,4.20
2022-08-17T13:22:13.028Z,3.90
2022-08-17T13:24:56.541Z,3.80
2022-08-17T13:27:27.798Z,4.30
2022-08-17T13:30:00.465Z,4.80
2022-08-17T13:32:33.591Z,4.00
2022-08-17T13:35:29.625Z,4.40
2022-08-17T13:38:06.800Z,4.00
2022-08-17T13:40:45.358Z,4.30
2022-08-17T13:43:48.885Z,4.30
2022-08-17T13:46:22.747Z,4.50
2022-08-17T13:49:01.607Z,4.20
2022-08-17T13:51:34.270Z,4.40
2022-08-17T13:54:06.195Z,4.70
2022-08-17T13:56:52.363Z,5.10
2022-08-17T13:59:53.380Z,4.60
2022-08-17T14:02:27.710Z,4.90
2022-08-17T14:04:59.161Z,5.00
2022-08-17T14:07:34.952Z,5.10
2022-08-17T14:10:14.747Z,5.00
2022-08-17T14:12:44.794Z,5.20
2022-08-17T14:15:16.188Z,5.30
2022-08-17T14:17:44.436Z,4.90
2022-08-17T14:20:13.827Z,4.90
2022-08-17T14:22:50.184Z,5.60
2022-08-17T14:25:27.031Z,4.50
2022-08-17T14:27:56.561Z,4.20
2022-08-17T14:30:30.001Z,4.80
2022-08-17T14:32:59.312Z,5.10
2022-08-17T14:35:29.623Z,4.70
2022-08-17T14:37:58.846Z,4.90
2022-08-17T14:40:28.245Z,5.30
2022-08-17T14:42:57.953Z,5.20
2022-08-17T14:45:30.421Z,5.70
2022-08-17T14:48:04.573Z,5.80
2022-08-17T14:50:35.205Z,6.10
2022-08-17T14:53:06.706Z,8.10
2022-08-17T14:55:36.971Z,5.80
2022-08-17T14:58:05.700Z,6.70
2022-08-17T15:00:34.145Z,5.90
2022-08-17T15:03:02.831Z,6.30
2022-08-17T15:05:35.113Z,6.30
2022-08-17T15:08:05.730Z,6.20
2022-08-17T15:10:34.692Z,6.40
2022-08-17T15:13:04.054Z,6.90
2022-08-17T15:15:32.214Z,6.60
2022-08-17T15:18:00.791Z,6.40
2022-08-17T15:20:30.703Z,6.50
2022-08-17T15:23:00.176Z,6.50
2022-08-17T15:25:32.484Z,7.40
2022-08-17T15:28:01.721Z,6.90
2022-08-17T15:30:31.300Z,6.90
2022-08-17T15:33:01.092Z,7.30
2022-08-17T15:35:32.818Z,6.60
2022-08-17T15:38:10.186Z,7.10
2022-08-17T15:40:43.543Z,6.90
2022-08-17T15:43:26.400Z,6.80
2022-08-17T15:46:04.830Z,5.70
2022-08-17T15:48:41.647Z,5.50
2022-08-17T15:51:23.563Z,6.10
2022-08-17T15:54:04.417Z,6.60
2022-08-17T15:56:51.496Z,8.00
2022-08-17T15:59:20.341Z,8.00
2022-08-17T16:03:01.733Z,8.70
2022-08-17T16:04:40.212Z,8.50
2022-08-17T16:07:12.230Z,8.90
2022-08-17T16:09:40.783Z,9.60
2022-08-17T16:12:18.128Z,9.80
2022-08-17T16:14:48.827Z,9.30
2022-08-17T16:17:39.912Z,8.70
2022-08-17T16:20:06.655Z,8.80
2022-08-17T16:22:38.891Z,8.40
2022-08-17T16:25:21.392Z,8.20
2022-08-17T16:27:53.629Z,7.80
2022-08-17T16:30:24.775Z,7.10
2022-08-17T16:32:57.804Z,8.40
2022-08-17T16:35:27.304Z,7.50
2022-08-17T16:37:58.522Z,7.70
2022-08-17T16:40:29.011Z,7.50
2022-08-17T16:42:57.848Z,7.90
2022-08-17T16:45:29.465Z,7.60
2022-08-17T16:47:59.294Z,7.00
2022-08-17T16:50:27.460Z,7.10
2022-08-17T16:53:04.896Z,7.30
2022-08-17T16:55:35.655Z,7.60
2022-08-17T16:58:05.661Z,7.40
2022-08-17T17:00:35.194Z,7.70
2022-08-17T17:03:19.768Z,8.20
2022-08-17T17:05:58.167Z,8.90
2022-08-17T17:08:32.227Z,7.90
2022-08-17T17:11:13.900Z,7.60
2022-08-17T17:14:02.414Z,7.60
2022-08-17T17:16:35.763Z,7.30
2022-08-17T17:19:45.899Z,7.70
2022-08-17T17:22:19.259Z,7.00
2022-08-17T17:24:56.807Z,8.00
2022-08-17T17:27:39.270Z,7.90
2022-08-17T17:32:49.906Z,7.70
2022-08-17T17:35:21.342Z,8.30
2022-08-17T17:37:52.152Z,7.90
2022-08-17T17:40:32.025Z,8.20
2022-08-17T17:43:20.422Z,8.70
2022-08-17T17:45:57.021Z,8.70
2022-08-17T17:48:31.035Z,7.90
2022-08-17T17:51:55.739Z,9.00
2022-08-17T17:54:26.196Z,8.80
2022-08-17T17:57:02.443Z,8.70
2022-08-17T17:59:47.698Z,8.40
2022-08-17T18:02:51.917Z,8.00
2022-08-17T18:05:30.110Z,8.70
2022-08-17T18:08:19.211Z,8.20
2022-08-17T18:10:55.282Z,8.00
2022-08-17T18:13:57.006Z,8.20
2022-08-17T18:16:29.830Z,8.80
2022-08-17T18:19:00.718Z,8.80
2022-08-17T18:21:44.671Z,8.50
2022-08-17T18:24:13.755Z,10.10
2022-08-17T18:26:57.749Z,9.30
2022-08-17T18:29:47.051Z,8.90
2022-08-17T18:32:33.739Z,9.30
2022-08-17T18:35:28.574Z,8.90
2022-08-17T18:38:20.621Z,8.60
2022-08-17T18:41:20.070Z,9.10
2022-08-17T18:44:03.832Z,8.30
2022-08-17T18:46:37.715Z,8.70
2022-08-17T18:49:19.747Z,8.40
2022-08-17T18:51:47.942Z,8.20
2022-08-17T18:54:23.157Z,8.30
2022-08-17T18:56:56.108Z,8.60
2022-08-17T18:59:29.728Z,8.50
2022-08-17T19:02:23.147Z,8.80
2022-08-17T19:04:59.723Z,8.90
2022-08-17T19:07:32.661Z,9.90
2022-08-17T19:10:26.198Z,8.90
2022-08-17T19:13:12.552Z,8.70
2022-08-17T19:16:11.821Z,9.00
2022-08-17T19:18:51.021Z,8.70
2022-08-17T19:21:26.864Z,9.50
2022-08-17T19:24:06.245Z,8.80
2022-08-17T19:26:54.052Z,9.90
2022-08-17T19:29:36.438Z,9.40
2022-08-17T19:32:07.554Z,9.90
2022-08-17T19:34:38.657Z,9.50
2022-08-17T19:37:34.665Z,9.00
2022-08-17T19:40:52.176Z,9.00
2022-08-17T19:43:42.534Z,9.80
2022-08-17T19:46:16.458Z,9.40
2022-08-17T19:49:06.295Z,9.20
2022-08-17T19:51:47.393Z,9.20
2022-08-17T19:54:29.135Z,8.50
2022-08-17T19:57:09.607Z,9.20
2022-08-17T20:00:15.660Z,9.10
2022-08-17T20:03:09.243Z,8.60
2022-08-17T20:06:09.199Z,8.90
2022-08-17T20:08:39.526Z,9.50
2022-08-17T20:11:25.038Z,9.80
2022-08-17T20:14:03.816Z,10.10
2022-08-17T20:16:33.652Z,9.30
2022-08-17T20:19:08.440Z,9.70
2022-08-17T20:22:00.260Z,9.40
2022-08-17T20:24:31.851Z,9.80
2022-08-17T20:27:17.221Z,9.40
2022-08-17T20:30:06.486Z,8.70
2022-08-17T20:32:56.896Z,8.70
2022-08-17T20:35:31.888Z,8.90
2022-08-17T20:38:11.350Z,8.20
2022-08-17T20:40:54.749Z,9.40
2022-08-17T20:43:33.751Z,8.90
2022-08-17T20:46:07.989Z,9.50
2022-08-17T20:48:44.995Z,9.10
2022-08-17T20:51:38.750Z,9.10
2022-08-17T20:54:28.302Z,8.80
2022-08-17T20:56:59.286Z,9.70
2022-08-17T20:59:28.738Z,9.60
2022-08-17T21:02:18.502Z,9.30
2022-08-17T21:04:50.223Z,9.30
2022-08-17T21:07:52.736Z,9.70
2022-08-17T21:10:23.688Z,9.40
2022-08-17T21:13:23.828Z,9.80
2022-08-17T21:16:00.672Z,9.90
2022-08-17T21:18:52.297Z,9.60
2022-08-17T21:21:24.121Z,9.40
2022-08-17T21:24:11.760Z,9.70
2022-08-17T21:26:54.058Z,9.70
2022-08-17T21:29:30.860Z,9.50
2022-08-17T21:32:05.383Z,9.40
2022-08-17T21:34:38.339Z,9.00
2022-08-17T21:37:29.717Z,9.80
2022-08-17T21:40:21.656Z,9.60
2022-08-17T21:42:50.566Z,9.50
2022-08-17T21:45:19.180Z,9.30
2022-08-17T21:48:07.099Z,9.10
2022-08-17T21:50:35.995Z,9.90
2022-08-17T21:53:05.461Z,9.40
2022-08-17T21:55:37.164Z,9.20
2022-08-17T21:58:17.531Z,8.20
2022-08-17T22:00:45.808Z,9.10
2022-08-17T22:03:28.877Z,9.40
2022-08-17T22:05:56.987Z,10.10
2022-08-17T22:08:25.403Z,9.50
2022-08-17T22:11:02.267Z,9.00
2022-08-17T22:13:30.480Z,9.50
2022-08-17T22:16:28.031Z,9.30
2022-08-17T22:19:00.438Z,9.00
2022-08-17T22:21:28.584Z,9.50
2022-08-17T22:24:04.154Z,9.50
2022-08-17T22:27:08.976Z,9.50
2022-08-17T22:29:47.942Z,9.60
2022-08-17T22:32:41.696Z,10.40
2022-08-17T22:35:18.361Z,9.70
2022-08-17T22:37:46.674Z,9.40
2022-08-17T22:40:29.212Z,9.30
2022-08-17T22:45:30.605Z,10.10
2022-08-17T22:50:33.314Z,10.10
2022-08-17T22:53:30.558Z,10.00
2022-08-17T22:56:17.498Z,9.50
2022-08-17T22:59:14.398Z,9.80
2022-08-17T23:01:45.565Z,10.70
2022-08-17T23:04:32.952Z,11.20
2022-08-17T23:07:01.320Z,9.90
2022-08-17T23:09:30.057Z,10.00
2022-08-17T23:11:59.152Z,10.40
2022-08-17T23:14:32.018Z,9.70
2022-08-17T23:17:01.720Z,10.00
2022-08-17T23:19:33.370Z,10.20
2022-08-17T23:22:04.576Z,10.20
2022-08-17T23:24:40.682Z,9.90
2022-08-17T23:27:08.859Z,10.00
2022-08-17T23:29:42.309Z,10.50
2022-08-17T23:32:14.839Z,10.70
2022-08-17T23:34:44.735Z,11.40
2022-08-17T23:37:12.987Z,10.10
2022-08-17T23:39:44.707Z,10.00
2022-08-17T23:42:16.726Z,10.40
2022-08-17T23:44:45.133Z,11.00
2022-08-17T23:47:13.355Z,10.30
2022-08-17T23:49:42.330Z,10.60
2022-08-17T23:54:47.545Z,10.90
2022-08-17T23:57:19.334Z,10.20
2022-08-17T23:59:47.582Z,10.70
